sensor_id;sensor_type;location;lat;lon;timestamp;P1;durP1;ratioP1;P2;durP2;ratioP2
42094;SDS011;27753;55.724;37.612;2023-08-07T00:01:57;11.70;;;5.80;;
42094;SDS011;27753;55.724;37.612;2023-08-07T00:04:23;6.88;;;6.15;;
42094;SDS011;27753;55.724;37.612;2023-08-07T00:06:50;13.40;;;6.50;;
42094;SDS011;27753;55.724;37.612;2023-08-07T00:09:15;7.22;;;6.25;;
42094;SDS011;27753;55.724;37.612;2023-08-07T00:11:41;10.88;;;6.43;;
42094;SDS011;27753;55.724;37.612;2023-08-07T00:14:07;10.52;;;6.97;;
42094;SDS011;27753;55.724;37.612;2023-08-07T00:16:33;7.97;;;7.18;;
42094;SDS011;27753;55.724;37.612;2023-08-07T00:18:59;8.73;;;6.78;;
42094;SDS011;27753;55.724;37.612;2023-08-07T00:21:25;8.35;;;7.03;;
42094;SDS011;27753;55.724;37.612;2023-08-07T00:23:50;9.52;;;6.50;;
42094;SDS011;27753;55.724;37.612;2023-08-07T00:26:17;12.52;;;6.97;;
42094;SDS011;27753;55.724;37.612;2023-08-07T00:28:42;10.48;;;7.28;;
42094;SDS011;27753;55.724;37.612;2023-08-07T00:31:08;10.00;;;6.68;;
42094;SDS011;27753;55.724;37.612;2023-08-07T00:33:34;10.38;;;6.85;;
42094;SDS011;27753;55.724;37.612;2023-08-07T00:36:00;13.55;;;6.68;;
42094;SDS011;27753;55.724;37.612;2023-08-07T00:38:26;12.82;;;7.72;;
42094;SDS011;27753;55.724;37.612;2023-08-07T00:40:52;11.45;;;6.50;;
42094;SDS011;27753;55.724;37.612;2023-08-07T00:43:18;7.50;;;6.50;;
42094;SDS011;27753;55.724;37.612;2023-08-07T00:45:45;8.85;;;6.60;;
42094;SDS011;27753;55.724;37.612;2023-08-07T00:48:12;8.75;;;6.15;;
42094;SDS011;27753;55.724;37.612;2023-08-07T00:50:41;9.88;;;6.57;;
42094;SDS011;27753;55.724;37.612;2023-08-07T00:53:08;11.40;;;6.43;;
42094;SDS011;27753;55.724;37.612;2023-08-07T00:55:35;8.48;;;5.97;;
42094;SDS011;27753;55.724;37.612;2023-08-07T00:58:01;9.05;;;6.57;;
42094;SDS011;27753;55.724;37.612;2023-08-07T01:00:28;8.48;;;6.05;;
42094;SDS011;27753;55.724;37.612;2023-08-07T01:02:55;13.75;;;6.13;;
42094;SDS011;27753;55.724;37.612;2023-08-07T01:05:22;9.35;;;6.18;;
42094;SDS011;27753;55.724;37.612;2023-08-07T01:07:49;10.05;;;6.15;;
42094;SDS011;27753;55.724;37.612;2023-08-07T01:10:19;9.60;;;6.40;;
42094;SDS011;27753;55.724;37.612;2023-08-07T01:13:08;9.07;;;5.75;;
42094;SDS011;27753;55.724;37.612;2023-08-07T01:15:59;13.50;;;5.78;;
42094;SDS011;27753;55.724;37.612;2023-08-07T01:18:32;7.05;;;6.35;;
42094;SDS011;27753;55.724;37.612;2023-08-07T01:21:00;9.68;;;6.57;;
42094;SDS011;27753;55.724;37.612;2023-08-07T01:23:27;9.35;;;6.05;;
42094;SDS011;27753;55.724;37.612;2023-08-07T01:25:53;8.35;;;6.20;;
42094;SDS011;27753;55.724;37.612;2023-08-07T01:28:26;10.98;;;6.00;;
42094;SDS011;27753;55.724;37.612;2023-08-07T01:30:59;9.82;;;6.13;;
42094;SDS011;27753;55.724;37.612;2023-08-07T01:33:40;9.68;;;6.50;;
42094;SDS011;27753;55.724;37.612;2023-08-07T01:36:16;9.75;;;6.13;;
42094;SDS011;27753;55.724;37.612;2023-08-07T01:38:42;7.38;;;6.15;;
42094;SDS011;27753;55.724;37.612;2023-08-07T01:41:09;8.68;;;5.97;;
42094;SDS011;27753;55.724;37.612;2023-08-07T01:43:35;13.80;;;6.18;;
42094;SDS011;27753;55.724;37.612;2023-08-07T01:46:01;8.38;;;6.40;;
42094;SDS011;27753;55.724;37.612;2023-08-07T01:48:28;8.73;;;5.97;;
42094;SDS011;27753;55.724;37.612;2023-08-07T01:50:53;9.43;;;5.75;;
42094;SDS011;27753;55.724;37.612;2023-08-07T01:53:20;11.38;;;6.15;;
42094;SDS011;27753;55.724;37.612;2023-08-07T01:55:46;9.15;;;6.00;;
42094;SDS011;27753;55.724;37.612;2023-08-07T01:58:12;12.27;;;6.35;;
42094;SDS011;27753;55.724;37.612;2023-08-07T02:00:38;8.65;;;6.57;;
42094;SDS011;27753;55.724;37.612;2023-08-07T02:03:03;7.63;;;5.85;;
42094;SDS011;27753;55.724;37.612;2023-08-07T02:05:29;6.78;;;6.07;;
42094;SDS011;27753;55.724;37.612;2023-08-07T02:07:55;9.27;;;5.88;;
42094;SDS011;27753;55.724;37.612;2023-08-07T02:10:22;8.20;;;6.15;;
42094;SDS011;27753;55.724;37.612;2023-08-07T02:12:48;8.43;;;6.65;;
42094;SDS011;27753;55.724;37.612;2023-08-07T02:17:42;8.95;;;6.45;;
42094;SDS011;27753;55.724;37.612;2023-08-07T02:20:08;8.95;;;6.72;;
42094;SDS011;27753;55.724;37.612;2023-08-07T02:22:34;6.93;;;6.10;;
42094;SDS011;27753;55.724;37.612;2023-08-07T02:25:00;10.35;;;6.63;;
42094;SDS011;27753;55.724;37.612;2023-08-07T02:27:26;11.13;;;5.68;;
42094;SDS011;27753;55.724;37.612;2023-08-07T02:29:51;12.02;;;6.25;;
42094;SDS011;27753;55.724;37.612;2023-08-07T02:32:18;8.25;;;6.07;;
42094;SDS011;27753;55.724;37.612;2023-08-07T02:34:44;9.13;;;5.90;;
42094;SDS011;27753;55.724;37.612;2023-08-07T02:37:10;12.80;;;6.32;;
42094;SDS011;27753;55.724;37.612;2023-08-07T02:39:36;7.40;;;5.97;;
42094;SDS011;27753;55.724;37.612;2023-08-07T02:42:02;11.57;;;6.30;;
42094;SDS011;27753;55.724;37.612;2023-08-07T02:44:28;9.95;;;5.97;;
42094;SDS011;27753;55.724;37.612;2023-08-07T02:46:54;6.50;;;5.90;;
42094;SDS011;27753;55.724;37.612;2023-08-07T02:49:19;10.48;;;6.20;;
42094;SDS011;27753;55.724;37.612;2023-08-07T02:51:45;8.32;;;6.03;;
42094;SDS011;27753;55.724;37.612;2023-08-07T02:54:11;9.45;;;6.30;;
42094;SDS011;27753;55.724;37.612;2023-08-07T02:56:37;8.82;;;6.05;;
42094;SDS011;27753;55.724;37.612;2023-08-07T02:59:03;10.98;;;6.22;;
42094;SDS011;27753;55.724;37.612;2023-08-07T03:01:29;10.38;;;6.18;;
42094;SDS011;27753;55.724;37.612;2023-08-07T03:03:55;7.30;;;6.20;;
42094;SDS011;27753;55.724;37.612;2023-08-07T03:06:21;6.78;;;6.07;;
42094;SDS011;27753;55.724;37.612;2023-08-07T03:08:47;7.70;;;5.78;;
42094;SDS011;27753;55.724;37.612;2023-08-07T03:11:13;6.07;;;5.43;;
42094;SDS011;27753;55.724;37.612;2023-08-07T03:13:38;9.63;;;6.00;;
42094;SDS011;27753;55.724;37.612;2023-08-07T03:16:05;9.07;;;5.95;;
42094;SDS011;27753;55.724;37.612;2023-08-07T03:18:32;10.63;;;6.15;;
42094;SDS011;27753;55.724;37.612;2023-08-07T03:20:58;10.80;;;6.10;;
42094;SDS011;27753;55.724;37.612;2023-08-07T03:23:25;10.52;;;5.90;;
42094;SDS011;27753;55.724;37.612;2023-08-07T03:26:01;10.93;;;5.68;;
42094;SDS011;27753;55.724;37.612;2023-08-07T03:28:30;11.52;;;5.97;;
42094;SDS011;27753;55.724;37.612;2023-08-07T03:30:57;8.43;;;5.90;;
42094;SDS011;27753;55.724;37.612;2023-08-07T03:33:23;9.23;;;5.65;;
42094;SDS011;27753;55.724;37.612;2023-08-07T03:35:49;8.32;;;5.25;;
42094;SDS011;27753;55.724;37.612;2023-08-07T03:38:14;8.80;;;5.30;;
42094;SDS011;27753;55.724;37.612;2023-08-07T03:40:40;6.80;;;5.20;;
42094;SDS011;27753;55.724;37.612;2023-08-07T03:43:06;9.60;;;5.28;;
42094;SDS011;27753;55.724;37.612;2023-08-07T03:45:32;8.35;;;5.95;;
42094;SDS011;27753;55.724;37.612;2023-08-07T03:47:58;9.10;;;5.25;;
42094;SDS011;27753;55.724;37.612;2023-08-07T03:50:25;12.35;;;5.85;;
42094;SDS011;27753;55.724;37.612;2023-08-07T03:52:52;10.13;;;5.63;;
42094;SDS011;27753;55.724;37.612;2023-08-07T03:55:18;9.98;;;5.43;;
42094;SDS011;27753;55.724;37.612;2023-08-07T03:57:44;10.73;;;5.40;;
42094;SDS011;27753;55.724;37.612;2023-08-07T04:00:10;9.25;;;5.38;;
42094;SDS011;27753;55.724;37.612;2023-08-07T04:02:36;6.87;;;5.53;;
42094;SDS011;27753;55.724;37.612;2023-08-07T04:05:03;9.88;;;5.47;;
42094;SDS011;27753;55.724;37.612;2023-08-07T04:07:29;8.60;;;5.00;;
42094;SDS011;27753;55.724;37.612;2023-08-07T04:09:55;9.35;;;4.28;;
42094;SDS011;27753;55.724;37.612;2023-08-07T04:12:21;10.80;;;5.68;;
42094;SDS011;27753;55.724;37.612;2023-08-07T04:14:47;8.77;;;5.17;;
42094;SDS011;27753;55.724;37.612;2023-08-07T04:17:15;10.13;;;5.60;;
42094;SDS011;27753;55.724;37.612;2023-08-07T04:19:41;7.78;;;5.38;;
42094;SDS011;27753;55.724;37.612;2023-08-07T04:22:07;8.88;;;5.18;;
42094;SDS011;27753;55.724;37.612;2023-08-07T04:24:32;6.57;;;5.85;;
42094;SDS011;27753;55.724;37.612;2023-08-07T04:26:58;6.72;;;5.53;;
42094;SDS011;27753;55.724;37.612;2023-08-07T04:29:24;8.45;;;5.90;;
42094;SDS011;27753;55.724;37.612;2023-08-07T04:31:50;8.98;;;5.38;;
42094;SDS011;27753;55.724;37.612;2023-08-07T04:34:17;12.70;;;5.38;;
42094;SDS011;27753;55.724;37.612;2023-08-07T04:36:44;13.60;;;5.22;;
42094;SDS011;27753;55.724;37.612;2023-08-07T04:39:10;10.32;;;5.60;;
42094;SDS011;27753;55.724;37.612;2023-08-07T04:41:38;9.05;;;5.43;;
42094;SDS011;27753;55.724;37.612;2023-08-07T04:44:10;10.93;;;5.15;;
42094;SDS011;27753;55.724;37.612;2023-08-07T04:46:58;10.48;;;6.45;;
42094;SDS011;27753;55.724;37.612;2023-08-07T04:49:32;6.65;;;5.40;;
42094;SDS011;27753;55.724;37.612;2023-08-07T04:52:04;15.65;;;5.07;;
42094;SDS011;27753;55.724;37.612;2023-08-07T04:54:31;16.90;;;7.55;;
42094;SDS011;27753;55.724;37.612;2023-08-07T04:57:02;10.30;;;5.55;;
42094;SDS011;27753;55.724;37.612;2023-08-07T04:59:39;29.00;;;7.35;;
42094;SDS011;27753;55.724;37.612;2023-08-07T05:02:07;8.90;;;5.30;;
42094;SDS011;27753;55.724;37.612;2023-08-07T05:04:33;13.00;;;5.25;;
42094;SDS011;27753;55.724;37.612;2023-08-07T05:06:59;10.07;;;4.55;;
42094;SDS011;27753;55.724;37.612;2023-08-07T05:09:26;8.50;;;3.83;;
42094;SDS011;27753;55.724;37.612;2023-08-07T05:11:56;7.00;;;4.50;;
42094;SDS011;27753;55.724;37.612;2023-08-07T05:14:23;7.57;;;3.97;;
42094;SDS011;27753;55.724;37.612;2023-08-07T05:16:53;12.20;;;4.10;;
42094;SDS011;27753;55.724;37.612;2023-08-07T05:19:19;9.70;;;4.27;;
42094;SDS011;27753;55.724;37.612;2023-08-07T05:21:48;13.75;;;4.47;;
42094;SDS011;27753;55.724;37.612;2023-08-07T05:24:16;9.18;;;4.32;;
42094;SDS011;27753;55.724;37.612;2023-08-07T05:26:43;6.97;;;3.83;;
42094;SDS011;27753;55.724;37.612;2023-08-07T05:29:09;7.22;;;4.05;;
42094;SDS011;27753;55.724;37.612;2023-08-07T05:31:35;7.68;;;4.18;;
42094;SDS011;27753;55.724;37.612;2023-08-07T05:34:01;11.60;;;3.70;;
42094;SDS011;27753;55.724;37.612;2023-08-07T05:36:27;10.30;;;7.57;;
42094;SDS011;27753;55.724;37.612;2023-08-07T05:38:55;7.75;;;4.07;;
42094;SDS011;27753;55.724;37.612;2023-08-07T05:41:21;7.07;;;4.18;;
42094;SDS011;27753;55.724;37.612;2023-08-07T05:43:47;16.08;;;5.10;;
42094;SDS011;27753;55.724;37.612;2023-08-07T05:46:13;9.45;;;4.32;;
42094;SDS011;27753;55.724;37.612;2023-08-07T05:48:40;5.78;;;4.00;;
42094;SDS011;27753;55.724;37.612;2023-08-07T05:51:07;13.73;;;4.68;;
42094;SDS011;27753;55.724;37.612;2023-08-07T05:53:34;14.05;;;4.85;;
42094;SDS011;27753;55.724;37.612;2023-08-07T05:56:03;14.25;;;4.70;;
42094;SDS011;27753;55.724;37.612;2023-08-07T05:58:29;14.30;;;4.20;;
42094;SDS011;27753;55.724;37.612;2023-08-07T06:00:55;8.07;;;3.75;;
42094;SDS011;27753;55.724;37.612;2023-08-07T06:03:23;10.88;;;4.25;;
42094;SDS011;27753;55.724;37.612;2023-08-07T06:15:35;12.77;;;4.38;;
42094;SDS011;27753;55.724;37.612;2023-08-07T06:18:01;11.05;;;4.45;;
42094;SDS011;27753;55.724;37.612;2023-08-07T06:20:27;11.05;;;4.47;;
42094;SDS011;27753;55.724;37.612;2023-08-07T06:22:53;15.88;;;4.03;;
42094;SDS011;27753;55.724;37.612;2023-08-07T06:25:18;10.32;;;3.75;;
42094;SDS011;27753;55.724;37.612;2023-08-07T06:27:44;11.75;;;4.13;;
42094;SDS011;27753;55.724;37.612;2023-08-07T06:30:10;12.90;;;3.85;;
42094;SDS011;27753;55.724;37.612;2023-08-07T06:32:39;11.98;;;3.60;;
42094;SDS011;27753;55.724;37.612;2023-08-07T06:37:31;11.90;;;3.30;;
42094;SDS011;27753;55.724;37.612;2023-08-07T06:39:57;13.10;;;3.90;;
42094;SDS011;27753;55.724;37.612;2023-08-07T06:42:23;16.95;;;4.32;;
42094;SDS011;27753;55.724;37.612;2023-08-07T06:47:15;7.80;;;3.00;;
42094;SDS011;27753;55.724;37.612;2023-08-07T06:52:06;22.10;;;4.15;;
42094;SDS011;27753;55.724;37.612;2023-08-07T06:56:58;16.45;;;4.45;;
42094;SDS011;27753;55.724;37.612;2023-08-07T07:01:50;25.58;;;4.63;;
42094;SDS011;27753;55.724;37.612;2023-08-07T07:04:16;10.98;;;3.15;;
42094;SDS011;27753;55.724;37.612;2023-08-07T07:06:43;14.68;;;3.60;;
42094;SDS011;27753;55.724;37.612;2023-08-07T07:09:09;16.33;;;3.50;;
42094;SDS011;27753;55.724;37.612;2023-08-07T07:11:35;8.18;;;2.75;;
42094;SDS011;27753;55.724;37.612;2023-08-07T07:14:01;18.05;;;3.58;;
42094;SDS011;27753;55.724;37.612;2023-08-07T07:16:27;18.83;;;4.30;;
42094;SDS011;27753;55.724;37.612;2023-08-07T07:18:53;19.15;;;3.78;;
42094;SDS011;27753;55.724;37.612;2023-08-07T07:21:21;14.85;;;3.05;;
42094;SDS011;27753;55.724;37.612;2023-08-07T07:23:47;7.70;;;3.30;;
42094;SDS011;27753;55.724;37.612;2023-08-07T07:26:13;17.52;;;3.38;;
42094;SDS011;27753;55.724;37.612;2023-08-07T07:28:38;12.93;;;2.83;;
42094;SDS011;27753;55.724;37.612;2023-08-07T07:31:04;10.90;;;2.40;;
42094;SDS011;27753;55.724;37.612;2023-08-07T07:33:30;12.70;;;3.35;;
42094;SDS011;27753;55.724;37.612;2023-08-07T07:35:56;12.27;;;2.85;;
42094;SDS011;27753;55.724;37.612;2023-08-07T07:38:22;8.55;;;4.15;;
42094;SDS011;27753;55.724;37.612;2023-08-07T07:40:48;17.80;;;3.88;;
42094;SDS011;27753;55.724;37.612;2023-08-07T07:43:15;22.67;;;2.90;;
42094;SDS011;27753;55.724;37.612;2023-08-07T07:45:44;5.45;;;2.75;;
42094;SDS011;27753;55.724;37.612;2023-08-07T07:48:12;15.07;;;2.90;;
42094;SDS011;27753;55.724;37.612;2023-08-07T07:50:44;11.82;;;2.30;;
42094;SDS011;27753;55.724;37.612;2023-08-07T07:53:18;9.57;;;2.58;;
42094;SDS011;27753;55.724;37.612;2023-08-07T07:55:47;6.85;;;2.42;;
42094;SDS011;27753;55.724;37.612;2023-08-07T07:58:13;17.52;;;3.10;;
42094;SDS011;27753;55.724;37.612;2023-08-07T08:00:39;14.55;;;2.67;;
42094;SDS011;27753;55.724;37.612;2023-08-07T08:03:05;10.43;;;2.92;;
42094;SDS011;27753;55.724;37.612;2023-08-07T08:05:37;11.95;;;2.17;;
42094;SDS011;27753;55.724;37.612;2023-08-07T08:08:03;11.63;;;2.75;;
42094;SDS011;27753;55.724;37.612;2023-08-07T08:10:30;12.93;;;3.60;;
42094;SDS011;27753;55.724;37.612;2023-08-07T08:12:59;14.90;;;2.58;;
42094;SDS011;27753;55.724;37.612;2023-08-07T08:15:30;12.20;;;3.00;;
42094;SDS011;27753;55.724;37.612;2023-08-07T08:18:18;16.33;;;2.97;;
42094;SDS011;27753;55.724;37.612;2023-08-07T08:20:46;7.57;;;2.22;;
42094;SDS011;27753;55.724;37.612;2023-08-07T08:23:12;13.57;;;2.55;;
42094;SDS011;27753;55.724;37.612;2023-08-07T08:25:41;11.02;;;2.58;;
42094;SDS011;27753;55.724;37.612;2023-08-07T08:28:07;13.18;;;3.20;;
42094;SDS011;27753;55.724;37.612;2023-08-07T08:30:33;7.20;;;2.17;;
42094;SDS011;27753;55.724;37.612;2023-08-07T08:32:59;14.70;;;3.00;;
42094;SDS011;27753;55.724;37.612;2023-08-07T08:35:30;18.95;;;4.03;;
42094;SDS011;27753;55.724;37.612;2023-08-07T08:37:56;9.70;;;3.05;;
42094;SDS011;27753;55.724;37.612;2023-08-07T08:40:28;17.23;;;3.25;;
42094;SDS011;27753;55.724;37.612;2023-08-07T08:42:55;7.30;;;2.25;;
42094;SDS011;27753;55.724;37.612;2023-08-07T08:45:50;10.13;;;2.85;;
42094;SDS011;27753;55.724;37.612;2023-08-07T08:48:18;7.05;;;3.00;;
42094;SDS011;27753;55.724;37.612;2023-08-07T08:51:06;9.50;;;3.13;;
42094;SDS011;27753;55.724;37.612;2023-08-07T08:53:37;15.63;;;3.13;;
42094;SDS011;27753;55.724;37.612;2023-08-07T08:56:03;6.03;;;2.78;;
42094;SDS011;27753;55.724;37.612;2023-08-07T08:58:32;11.10;;;2.92;;
42094;SDS011;27753;55.724;37.612;2023-08-07T09:00:59;24.98;;;4.88;;
42094;SDS011;27753;55.724;37.612;2023-08-07T09:03:25;12.27;;;2.20;;
42094;SDS011;27753;55.724;37.612;2023-08-07T09:05:57;12.38;;;2.95;;
42094;SDS011;27753;55.724;37.612;2023-08-07T09:08:25;24.48;;;6.22;;
42094;SDS011;27753;55.724;37.612;2023-08-07T09:10:54;6.45;;;3.15;;
42094;SDS011;27753;55.724;37.612;2023-08-07T09:13:32;20.48;;;3.30;;
42094;SDS011;27753;55.724;37.612;2023-08-07T09:16:03;11.30;;;3.17;;
42094;SDS011;27753;55.724;37.612;2023-08-07T09:18:42;14.50;;;3.67;;
42094;SDS011;27753;55.724;37.612;2023-08-07T09:21:10;13.63;;;2.90;;
42094;SDS011;27753;55.724;37.612;2023-08-07T09:23:37;13.07;;;4.15;;
42094;SDS011;27753;55.724;37.612;2023-08-07T09:26:03;8.55;;;3.13;;
42094;SDS011;27753;55.724;37.612;2023-08-07T09:28:31;7.50;;;2.55;;
42094;SDS011;27753;55.724;37.612;2023-08-07T09:31:01;15.85;;;3.08;;
42094;SDS011;27753;55.724;37.612;2023-08-07T09:33:27;8.02;;;2.88;;
42094;SDS011;27753;55.724;37.612;2023-08-07T09:35:57;17.20;;;3.83;;
42094;SDS011;27753;55.724;37.612;2023-08-07T09:38:27;12.43;;;3.63;;
42094;SDS011;27753;55.724;37.612;2023-08-07T09:40:59;6.75;;;2.00;;
42094;SDS011;27753;55.724;37.612;2023-08-07T09:43:28;8.57;;;2.20;;
42094;SDS011;27753;55.724;37.612;2023-08-07T09:48:30;9.95;;;2.45;;
42094;SDS011;27753;55.724;37.612;2023-08-07T09:51:00;8.52;;;2.35;;
42094;SDS011;27753;55.724;37.612;2023-08-07T09:53:29;7.97;;;2.50;;
42094;SDS011;27753;55.724;37.612;2023-08-07T09:56:11;11.60;;;2.60;;
42094;SDS011;27753;55.724;37.612;2023-08-07T09:58:39;14.75;;;2.97;;
42094;SDS011;27753;55.724;37.612;2023-08-07T10:01:13;9.57;;;2.55;;
42094;SDS011;27753;55.724;37.612;2023-08-07T10:03:41;16.20;;;2.83;;
42094;SDS011;27753;55.724;37.612;2023-08-07T10:06:08;16.15;;;2.70;;
42094;SDS011;27753;55.724;37.612;2023-08-07T10:08:34;10.50;;;2.42;;
42094;SDS011;27753;55.724;37.612;2023-08-07T10:11:02;12.45;;;2.90;;
42094;SDS011;27753;55.724;37.612;2023-08-07T10:13:30;9.93;;;2.60;;
42094;SDS011;27753;55.724;37.612;2023-08-07T10:15:56;10.27;;;2.55;;
42094;SDS011;27753;55.724;37.612;2023-08-07T10:18:23;10.77;;;2.85;;
42094;SDS011;27753;55.724;37.612;2023-08-07T10:20:49;5.55;;;2.28;;
42094;SDS011;27753;55.724;37.612;2023-08-07T10:23:15;5.93;;;2.33;;
42094;SDS011;27753;55.724;37.612;2023-08-07T10:25:43;6.93;;;3.30;;
42094;SDS011;27753;55.724;37.612;2023-08-07T10:28:12;9.85;;;2.50;;
42094;SDS011;27753;55.724;37.612;2023-08-07T10:30:42;9.50;;;2.60;;
42094;SDS011;27753;55.724;37.612;2023-08-07T10:33:12;10.93;;;5.93;;
42094;SDS011;27753;55.724;37.612;2023-08-07T10:35:43;9.18;;;3.15;;
42094;SDS011;27753;55.724;37.612;2023-08-07T10:38:12;3.83;;;2.30;;
42094;SDS011;27753;55.724;37.612;2023-08-07T10:43:27;10.23;;;3.38;;
42094;SDS011;27753;55.724;37.612;2023-08-07T10:45:54;12.20;;;2.60;;
42094;SDS011;27753;55.724;37.612;2023-08-07T10:48:46;14.63;;;3.90;;
42094;SDS011;27753;55.724;37.612;2023-08-07T10:51:13;7.18;;;2.70;;
42094;SDS011;27753;55.724;37.612;2023-08-07T10:53:43;5.53;;;2.45;;
42094;SDS011;27753;55.724;37.612;2023-08-07T10:56:18;9.52;;;3.08;;
42094;SDS011;27753;55.724;37.612;2023-08-07T10:58:57;6.95;;;2.83;;
42094;SDS011;27753;55.724;37.612;2023-08-07T11:03:53;10.05;;;3.22;;
42094;SDS011;27753;55.724;37.612;2023-08-07T11:06:23;9.07;;;3.63;;
42094;SDS011;27753;55.724;37.612;2023-08-07T11:08:51;9.93;;;4.55;;
42094;SDS011;27753;55.724;37.612;2023-08-07T11:11:18;15.98;;;4.15;;
42094;SDS011;27753;55.724;37.612;2023-08-07T11:13:47;15.60;;;4.60;;
42094;SDS011;27753;55.724;37.612;2023-08-07T11:16:13;7.23;;;3.80;;
42094;SDS011;27753;55.724;37.612;2023-08-07T11:18:41;9.05;;;3.13;;
42094;SDS011;27753;55.724;37.612;2023-08-07T11:21:08;8.95;;;3.42;;
42094;SDS011;27753;55.724;37.612;2023-08-07T11:23:38;10.93;;;3.58;;
42094;SDS011;27753;55.724;37.612;2023-08-07T11:26:05;11.23;;;4.35;;
42094;SDS011;27753;55.724;37.612;2023-08-07T11:28:31;19.13;;;4.68;;
42094;SDS011;27753;55.724;37.612;2023-08-07T11:30:58;12.82;;;3.53;;
42094;SDS011;27753;55.724;37.612;2023-08-07T11:33:24;18.92;;;3.97;;
42094;SDS011;27753;55.724;37.612;2023-08-07T11:35:51;14.07;;;3.78;;
42094;SDS011;27753;55.724;37.612;2023-08-07T11:41:03;13.93;;;4.13;;
42094;SDS011;27753;55.724;37.612;2023-08-07T11:43:30;32.30;;;5.80;;
42094;SDS011;27753;55.724;37.612;2023-08-07T11:45:57;13.55;;;3.75;;
42094;SDS011;27753;55.724;37.612;2023-08-07T11:53:16;7.03;;;3.90;;
42094;SDS011;27753;55.724;37.612;2023-08-07T11:58:19;10.40;;;4.80;;
42094;SDS011;27753;55.724;37.612;2023-08-07T12:00:46;17.30;;;5.93;;
42094;SDS011;27753;55.724;37.612;2023-08-07T12:03:24;7.95;;;4.07;;
42094;SDS011;27753;55.724;37.612;2023-08-07T12:05:52;14.90;;;5.43;;
42094;SDS011;27753;55.724;37.612;2023-08-07T12:10:48;11.60;;;5.47;;
42094;SDS011;27753;55.724;37.612;2023-08-07T12:13:15;14.68;;;4.10;;
42094;SDS011;27753;55.724;37.612;2023-08-07T12:15:43;9.25;;;4.03;;
42094;SDS011;27753;55.724;37.612;2023-08-07T12:18:10;12.57;;;3.97;;
42094;SDS011;27753;55.724;37.612;2023-08-07T12:20:38;9.88;;;3.53;;
42094;SDS011;27753;55.724;37.612;2023-08-07T12:23:07;45.92;;;8.90;;
42094;SDS011;27753;55.724;37.612;2023-08-07T12:25:36;20.77;;;4.90;;
42094;SDS011;27753;55.724;37.612;2023-08-07T12:28:02;7.85;;;4.53;;
42094;SDS011;27753;55.724;37.612;2023-08-07T12:30:36;9.93;;;3.88;;
42094;SDS011;27753;55.724;37.612;2023-08-07T12:33:08;9.02;;;3.88;;
42094;SDS011;27753;55.724;37.612;2023-08-07T12:35:37;10.15;;;3.85;;
42094;SDS011;27753;55.724;37.612;2023-08-07T12:38:02;17.48;;;4.72;;
42094;SDS011;27753;55.724;37.612;2023-08-07T12:40:34;13.77;;;4.32;;
42094;SDS011;27753;55.724;37.612;2023-08-07T12:43:01;18.38;;;6.38;;
42094;SDS011;27753;55.724;37.612;2023-08-07T12:45:28;11.15;;;4.38;;
42094;SDS011;27753;55.724;37.612;2023-08-07T12:47:58;14.00;;;5.05;;
42094;SDS011;27753;55.724;37.612;2023-08-07T12:50:27;14.68;;;5.32;;
42094;SDS011;27753;55.724;37.612;2023-08-07T12:52:56;9.45;;;3.92;;
42094;SDS011;27753;55.724;37.612;2023-08-07T12:55:23;16.33;;;5.88;;
42094;SDS011;27753;55.724;37.612;2023-08-07T12:57:57;9.73;;;4.75;;
42094;SDS011;27753;55.724;37.612;2023-08-07T13:00:23;18.43;;;5.57;;
42094;SDS011;27753;55.724;37.612;2023-08-07T13:02:50;13.55;;;3.88;;
42094;SDS011;27753;55.724;37.612;2023-08-07T13:05:17;8.88;;;3.83;;
42094;SDS011;27753;55.724;37.612;2023-08-07T13:10:11;6.55;;;4.13;;
42094;SDS011;27753;55.724;37.612;2023-08-07T13:12:39;10.13;;;4.50;;
42094;SDS011;27753;55.724;37.612;2023-08-07T13:15:07;8.68;;;4.50;;
42094;SDS011;27753;55.724;37.612;2023-08-07T13:17:42;14.00;;;4.43;;
42094;SDS011;27753;55.724;37.612;2023-08-07T13:22:39;11.15;;;4.70;;
42094;SDS011;27753;55.724;37.612;2023-08-07T13:25:12;9.52;;;3.90;;
42094;SDS011;27753;55.724;37.612;2023-08-07T13:27:45;11.00;;;4.28;;
42094;SDS011;27753;55.724;37.612;2023-08-07T13:37:43;11.25;;;4.05;;
42094;SDS011;27753;55.724;37.612;2023-08-07T13:47:07;10.68;;;4.63;;
42094;SDS011;27753;55.724;37.612;2023-08-07T13:53:14;6.78;;;3.92;;
42094;SDS011;27753;55.724;37.612;2023-08-07T13:55:56;17.63;;;4.75;;
42094;SDS011;27753;55.724;37.612;2023-08-07T13:58:42;17.70;;;4.85;;
42094;SDS011;27753;55.724;37.612;2023-08-07T14:01:10;18.10;;;4.60;;
42094;SDS011;27753;55.724;37.612;2023-08-07T14:03:36;12.27;;;3.33;;
42094;SDS011;27753;55.724;37.612;2023-08-07T14:06:02;12.57;;;4.43;;
42094;SDS011;27753;55.724;37.612;2023-08-07T14:08:28;17.63;;;4.73;;
42094;SDS011;27753;55.724;37.612;2023-08-07T14:10:54;8.18;;;4.05;;
42094;SDS011;27753;55.724;37.612;2023-08-07T14:13:20;6.43;;;3.93;;
42094;SDS011;27753;55.724;37.612;2023-08-07T14:15:46;12.05;;;4.68;;
42094;SDS011;27753;55.724;37.612;2023-08-07T14:18:12;7.57;;;4.00;;
42094;SDS011;27753;55.724;37.612;2023-08-07T14:20:40;14.93;;;4.35;;
42094;SDS011;27753;55.724;37.612;2023-08-07T14:23:06;10.77;;;4.05;;
42094;SDS011;27753;55.724;37.612;2023-08-07T14:25:32;11.65;;;3.47;;
42094;SDS011;27753;55.724;37.612;2023-08-07T14:27:58;10.90;;;3.40;;
42094;SDS011;27753;55.724;37.612;2023-08-07T14:30:24;8.88;;;3.85;;
42094;SDS011;27753;55.724;37.612;2023-08-07T14:32:50;11.05;;;4.03;;
42094;SDS011;27753;55.724;37.612;2023-08-07T14:35:17;6.95;;;3.08;;
42094;SDS011;27753;55.724;37.612;2023-08-07T14:37:43;6.32;;;3.08;;
42094;SDS011;27753;55.724;37.612;2023-08-07T14:40:09;7.85;;;3.63;;
42094;SDS011;27753;55.724;37.612;2023-08-07T14:42:36;21.45;;;4.28;;
42094;SDS011;27753;55.724;37.612;2023-08-07T14:45:02;10.45;;;3.47;;
42094;SDS011;27753;55.724;37.612;2023-08-07T14:49:54;17.70;;;4.10;;
42094;SDS011;27753;55.724;37.612;2023-08-07T14:52:20;13.38;;;4.10;;
42094;SDS011;27753;55.724;37.612;2023-08-07T14:54:47;17.50;;;4.18;;
42094;SDS011;27753;55.724;37.612;2023-08-07T14:57:13;15.15;;;4.32;;
42094;SDS011;27753;55.724;37.612;2023-08-07T14:59:39;12.90;;;4.15;;
42094;SDS011;27753;55.724;37.612;2023-08-07T15:02:05;9.15;;;4.38;;
42094;SDS011;27753;55.724;37.612;2023-08-07T15:04:31;11.93;;;3.53;;
42094;SDS011;27753;55.724;37.612;2023-08-07T15:06:57;11.05;;;4.07;;
42094;SDS011;27753;55.724;37.612;2023-08-07T15:09:24;15.75;;;5.70;;
42094;SDS011;27753;55.724;37.612;2023-08-07T15:11:50;9.30;;;3.50;;
42094;SDS011;27753;55.724;37.612;2023-08-07T15:14:16;9.75;;;3.85;;
42094;SDS011;27753;55.724;37.612;2023-08-07T15:16:42;14.02;;;4.55;;
42094;SDS011;27753;55.724;37.612;2023-08-07T15:19:08;13.50;;;4.07;;
42094;SDS011;27753;55.724;37.612;2023-08-07T15:21:34;15.97;;;4.63;;
42094;SDS011;27753;55.724;37.612;2023-08-07T15:24:03;10.40;;;4.32;;
42094;SDS011;27753;55.724;37.612;2023-08-07T15:26:31;6.60;;;3.60;;
42094;SDS011;27753;55.724;37.612;2023-08-07T15:28:57;17.10;;;4.53;;
42094;SDS011;27753;55.724;37.612;2023-08-07T15:31:23;8.43;;;4.13;;
42094;SDS011;27753;55.724;37.612;2023-08-07T15:33:49;11.00;;;3.87;;
42094;SDS011;27753;55.724;37.612;2023-08-07T15:36:18;15.25;;;4.68;;
42094;SDS011;27753;55.724;37.612;2023-08-07T15:38:46;20.02;;;4.68;;
42094;SDS011;27753;55.724;37.612;2023-08-07T15:41:15;12.48;;;5.13;;
42094;SDS011;27753;55.724;37.612;2023-08-07T15:43:44;13.70;;;4.30;;